Blaney Park, Michigan
Current Conditions -  °F | °C
As of 5:34 AM on Wednesday 22 Oct 2014 (Local Time) from KISQ Reporting Station
Scattered Clouds Scattered Clouds  
Wind Chill: 26°   Ceiling: Unl
Heat Index: 26°   Visibility: 10mi
Dew Point: 25°   Wind: 0mph
Humidity: 97%   Direction: NA
Pressure: 30.35"   Gusts: NA
Location:  46.2466°N, 85.928°W
Report Text: KISQ 220934Z AUTO 00000KT 10SM SCT023 M03/M04 A3035 RMK AO2 T10331037
Loading
Personal Weather Stations






























Interactive Weather Map
Tropical Storm Tracking
New forecast layout! Learn more

10-Day Weather Forecast

Advertisements
Track Severe Weather on mobile